Time,TemperatureF,DewpointF,PressureIn,WindDirection,WindDirectionDegrees,WindSpeedMPH,WindSpeedGustMPH,Humidity,HourlyPrecipIn,Conditions,Clouds,dailyrainin,SoftwareType,DateUTC
2013-02-06 00:05:00,29.8,26.0,30.00,NW,315,9.0,-999.0,87,-99.99,,,0.01,weatherlink.com 1.10,2013-02-06 05:05:00,
2013-02-06 00:20:00,29.8,26.0,30.00,West,279,12.0,-999.0,87,-99.99,,,0.01,weatherlink.com 1.10,2013-02-06 05:20:00,
2013-02-06 00:36:00,29.8,26.0,30.01,NW,317,10.0,-999.0,85,-99.99,,,0.01,weatherlink.com 1.10,2013-02-06 05:36:00,
2013-02-06 00:50:00,30.0,25.0,30.02,NW,320,10.0,-999.0,83,-99.99,,,0.01,weatherlink.com 1.10,2013-02-06 05:50:00,
2013-02-06 01:05:00,30.0,25.0,30.03,NW,309,11.0,-999.0,82,-99.99,,,0.01,weatherlink.com 1.10,2013-02-06 06:05:00,
2013-02-06 01:21:00,30.0,25.0,30.03,NW,317,10.0,-999.0,80,-99.99,,,0.01,weatherlink.com 1.10,2013-02-06 06:21:00,
2013-02-06 01:35:00,29.7,24.0,30.04,WNW,286,8.0,-999.0,79,-99.99,,,0.01,weatherlink.com 1.10,2013-02-06 06:35:00,
2013-02-06 01:51:00,29.7,24.0,30.04,WNW,285,6.0,-999.0,79,-99.99,,,0.01,weatherlink.com 1.10,2013-02-06 06:51:00,
2013-02-06 02:05:00,29.5,24.0,30.05,WNW,285,8.0,-999.0,79,-99.99,,,0.01,weatherlink.com 1.10,2013-02-06 07:05:00,
2013-02-06 02:21:00,29.5,24.0,30.05,WNW,286,5.0,-999.0,79,-99.99,,,0.01,weatherlink.com 1.10,2013-02-06 07:21:00,
2013-02-06 02:35:00,29.3,24.0,30.06,West,281,6.0,-999.0,80,-99.99,,,0.01,weatherlink.com 1.10,2013-02-06 07:35:00,
2013-02-06 02:50:00,29.3,24.0,30.07,West,277,9.0,-999.0,79,-99.99,,,0.01,weatherlink.com 1.10,2013-02-06 07:50:00,
2013-02-06 03:06:00,29.3,23.0,30.09,West,280,7.0,-999.0,77,-99.99,,,0.01,weatherlink.com 1.10,2013-02-06 08:06:00,
2013-02-06 03:20:00,29.3,23.0,30.09,West,277,7.0,-999.0,76,-99.99,,,0.01,weatherlink.com 1.10,2013-02-06 08:20:00,
2013-02-06 03:35:00,29.1,23.0,30.09,WNW,294,7.0,-999.0,77,-99.99,,,0.01,weatherlink.com 1.10,2013-02-06 08:35:00,
2013-02-06 03:50:00,29.0,23.0,30.09,NW,305,7.0,-999.0,77,-99.99,,,0.01,weatherlink.com 1.10,2013-02-06 08:50:00,
2013-02-06 04:05:00,29.0,23.0,30.09,NNW,331,6.0,-999.0,77,-99.99,,,0.01,weatherlink.com 1.10,2013-02-06 09:05:00,
2013-02-06 04:21:00,28.7,22.0,30.10,North,360,3.0,-999.0,76,-99.99,,,0.01,weatherlink.com 1.10,2013-02-06 09:21:00,
2013-02-06 04:35:00,28.2,22.0,30.11,NNW,344,9.0,-999.0,77,-99.99,,,0.01,weatherlink.com 1.10,2013-02-06 09:35:00,
2013-02-06 04:50:00,27.5,22.0,30.12,North,355,6.0,-999.0,79,-99.99,,,0.01,weatherlink.com 1.10,2013-02-06 09:50:00,
2013-02-06 05:05:00,27.5,22.0,30.12,North,5,4.0,-999.0,78,-99.99,,,0.01,weatherlink.com 1.10,2013-02-06 10:05:00,
2013-02-06 05:20:00,27.0,21.0,30.13,NNE,22,4.0,-999.0,78,-99.99,,,0.01,weatherlink.com 1.10,2013-02-06 10:20:00,
2013-02-06 05:35:00,26.7,20.0,30.14,NNE,16,3.0,-999.0,77,-99.99,,,0.01,weatherlink.com 1.10,2013-02-06 10:35:00,
2013-02-06 05:50:00,26.4,20.0,30.15,NNE,24,3.0,-999.0,78,-99.99,,,0.01,weatherlink.com 1.10,2013-02-06 10:50:00,
2013-02-06 06:05:00,26.0,20.0,30.16,NNE,28,3.0,-999.0,79,-99.99,,,0.01,weatherlink.com 1.10,2013-02-06 11:05:00,
2013-02-06 06:20:00,25.4,20.0,30.17,NNE,29,2.0,-999.0,79,-99.99,,,0.01,weatherlink.com 1.10,2013-02-06 11:20:00,
2013-02-06 06:35:00,25.3,19.0,30.18,NNE,29,2.0,-999.0,77,-99.99,,,0.01,weatherlink.com 1.10,2013-02-06 11:35:00,
2013-02-06 06:50:00,25.1,18.0,30.18,NNE,29,3.0,-999.0,75,-99.99,,,0.01,weatherlink.com 1.10,2013-02-06 11:50:00,
2013-02-06 07:05:00,24.7,18.0,30.19,NNE,29,4.0,-999.0,75,-99.99,,,0.01,weatherlink.com 1.10,2013-02-06 12:05:00,
2013-02-06 07:20:00,23.6,17.0,30.20,NNE,29,2.0,-999.0,76,-99.99,,,0.01,weatherlink.com 1.10,2013-02-06 12:20:00,
2013-02-06 07:35:00,23.0,17.0,30.20,NNE,29,2.0,-999.0,76,-99.99,,,0.01,weatherlink.com 1.10,2013-02-06 12:35:00,
2013-02-06 07:50:00,22.1,16.0,30.21,NNE,29,2.0,-999.0,77,-99.99,,,0.01,weatherlink.com 1.10,2013-02-06 12:50:00,
2013-02-06 08:05:00,21.4,16.0,30.22,NNE,29,4.0,-999.0,78,-99.99,,,0.01,weatherlink.com 1.10,2013-02-06 13:05:00,
2013-02-06 08:20:00,21.0,15.0,30.23,NNE,29,2.0,-999.0,78,-99.99,,,0.01,weatherlink.com 1.10,2013-02-06 13:20:00,
2013-02-06 08:35:00,20.3,15.0,30.23,NNE,29,2.0,-999.0,79,-99.99,,,0.01,weatherlink.com 1.10,2013-02-06 13:35:00,
2013-02-06 08:50:00,16.5,11.0,30.23,NNE,29,4.0,-999.0,77,-99.99,,,0.01,weatherlink.com 1.10,2013-02-06 13:50:00,
2013-02-06 09:05:00,18.0,13.0,30.23,NNE,30,1.0,-999.0,82,-99.99,,,0.01,weatherlink.com 1.10,2013-02-06 14:05:00,
2013-02-06 09:20:00,19.9,15.0,30.23,NNE,30,3.0,-999.0,81,-99.99,,,0.01,weatherlink.com 1.10,2013-02-06 14:20:00,
2013-02-06 09:35:00,17.8,12.0,30.23,SSE,168,8.0,-999.0,79,-99.99,,,0.01,weatherlink.com 1.10,2013-02-06 14:35:00,
2013-02-06 09:50:00,19.5,14.0,30.23,South,169,2.0,-999.0,79,-99.99,,,0.01,weatherlink.com 1.10,2013-02-06 14:50:00,
2013-02-06 10:05:00,22.9,16.0,30.23,SSE,163,1.0,-999.0,75,-99.99,,,0.01,weatherlink.com 1.10,2013-02-06 15:05:00,
2013-02-06 10:20:00,24.8,16.0,30.24,SSE,163,2.0,-999.0,70,-99.99,,,0.01,weatherlink.com 1.10,2013-02-06 15:20:00,
2013-02-06 10:35:00,24.7,15.0,30.24,SSE,159,5.0,-999.0,67,-99.99,,,0.01,weatherlink.com 1.10,2013-02-06 15:35:00,
2013-02-06 10:50:00,25.3,15.0,30.25,SSE,156,5.0,-999.0,64,-99.99,,,0.01,weatherlink.com 1.10,2013-02-06 15:50:00,
2013-02-06 11:05:00,26.6,15.0,30.25,SSE,154,4.0,-999.0,62,-99.99,,,0.01,weatherlink.com 1.10,2013-02-06 16:05:00,
2013-02-06 11:20:00,28.2,16.0,30.27,SSE,154,4.0,-999.0,60,-99.99,,,0.01,weatherlink.com 1.10,2013-02-06 16:20:00,
2013-02-06 11:35:00,28.7,15.0,30.26,SSE,154,5.0,-999.0,58,-99.99,,,0.01,weatherlink.com 1.10,2013-02-06 16:35:00,
2013-02-06 11:50:00,29.4,15.0,30.26,SSE,156,2.0,-999.0,56,-99.99,,,0.02,weatherlink.com 1.10,2013-02-06 16:50:00,
2013-02-06 12:05:00,30.3,16.0,30.27,SSE,157,2.0,-999.0,55,-99.99,,,0.02,weatherlink.com 1.10,2013-02-06 17:05:00,
2013-02-06 12:21:00,30.6,15.0,30.26,SSE,157,2.0,-999.0,53,-99.99,,,0.00,weatherlink.com 1.10,2013-02-06 17:21:00,
2013-02-06 12:35:00,29.1,14.0,30.25,SSE,150,6.0,-999.0,53,-99.99,,,0.00,weatherlink.com 1.10,2013-02-06 17:35:00,
2013-02-06 12:50:00,28.1,14.0,30.25,SE,144,5.0,-999.0,55,-99.99,,,0.01,weatherlink.com 1.10,2013-02-06 17:50:00,
2013-02-06 13:05:00,28.1,14.0,30.25,SE,142,5.0,-999.0,56,-99.99,,,0.01,weatherlink.com 1.10,2013-02-06 18:05:00,
2013-02-06 13:20:00,27.6,14.0,30.25,SE,136,5.0,-999.0,58,-99.99,,,0.01,weatherlink.com 1.10,2013-02-06 18:20:00,
2013-02-06 13:35:00,27.9,14.0,30.25,SE,134,6.0,-999.0,55,-99.99,,,0.01,weatherlink.com 1.10,2013-02-06 18:35:00,
2013-02-06 13:50:00,28.2,13.0,30.25,SE,142,7.0,-999.0,54,-99.99,,,0.01,weatherlink.com 1.10,2013-02-06 18:50:00,
2013-02-06 14:05:00,27.9,14.0,30.24,SE,144,8.0,-999.0,55,-99.99,,,0.02,weatherlink.com 1.10,2013-02-06 19:05:00,
2013-02-06 14:20:00,27.5,14.0,30.24,SE,130,7.0,-999.0,57,-99.99,,,0.02,weatherlink.com 1.10,2013-02-06 19:20:00,
2013-02-06 14:35:00,27.8,15.0,30.24,SE,142,8.0,-999.0,58,-99.99,,,0.02,weatherlink.com 1.10,2013-02-06 19:35:00,
2013-02-06 14:50:00,27.8,15.0,30.24,SE,145,6.0,-999.0,59,-99.99,,,0.02,weatherlink.com 1.10,2013-02-06 19:50:00,
2013-02-06 15:05:00,28.8,16.0,30.25,SSE,149,6.0,-999.0,59,-99.99,,,0.02,weatherlink.com 1.10,2013-02-06 20:05:00,
2013-02-06 15:20:00,28.7,15.0,30.25,SSE,150,6.0,-999.0,58,-99.99,,,0.02,weatherlink.com 1.10,2013-02-06 20:20:00,
2013-02-06 15:35:00,27.8,15.0,30.24,SE,144,0.0,-999.0,59,-99.99,,,0.02,weatherlink.com 1.10,2013-02-06 20:35:00,
2013-02-06 15:50:00,27.5,15.0,30.23,SE,139,0.0,-999.0,59,-99.99,,,0.02,weatherlink.com 1.10,2013-02-06 20:50:00,
2013-02-06 16:05:00,26.9,14.0,30.25,SE,135,0.0,-999.0,59,-99.99,,,0.02,weatherlink.com 1.10,2013-02-06 21:05:00,
2013-02-06 16:20:00,26.9,14.0,30.25,SE,127,0.0,-999.0,59,-99.99,,,0.02,weatherlink.com 1.10,2013-02-06 21:20:00,
2013-02-06 16:35:00,26.6,15.0,30.25,SE,127,0.0,-999.0,61,-99.99,,,0.02,weatherlink.com 1.10,2013-02-06 21:35:00,
2013-02-06 16:50:00,26.0,14.0,30.26,SE,127,0.0,-999.0,62,-99.99,,,0.02,weatherlink.com 1.10,2013-02-06 21:50:00,
2013-02-06 17:05:00,24.4,13.0,30.25,SE,127,0.0,-999.0,63,-99.99,,,0.02,weatherlink.com 1.10,2013-02-06 22:05:00,
2013-02-06 17:20:00,22.5,12.0,30.25,ESE,121,0.0,-999.0,65,-99.99,,,0.02,weatherlink.com 1.10,2013-02-06 22:20:00,
2013-02-06 17:35:00,23.3,13.0,30.25,ESE,116,0.0,-999.0,65,-99.99,,,0.02,weatherlink.com 1.10,2013-02-06 22:35:00,
2013-02-06 17:50:00,23.2,13.0,30.25,ESE,109,0.0,-999.0,65,-99.99,,,0.02,weatherlink.com 1.10,2013-02-06 22:50:00,
2013-02-06 18:05:00,21.0,12.0,30.25,ESE,103,0.0,-999.0,67,-99.99,,,0.02,weatherlink.com 1.10,2013-02-06 23:05:00,
2013-02-06 18:20:00,20.5,11.0,30.25,ESE,102,0.0,-999.0,68,-99.99,,,0.02,weatherlink.com 1.10,2013-02-06 23:20:00,
2013-02-06 18:35:00,18.0,10.0,30.24,ESE,102,0.0,-999.0,70,-99.99,,,0.02,weatherlink.com 1.10,2013-02-06 23:35:00,
2013-02-06 18:50:00,20.2,13.0,30.24,ESE,107,0.0,-999.0,72,-99.99,,,0.02,weatherlink.com 1.10,2013-02-06 23:50:00,
2013-02-06 19:05:00,21.3,14.0,30.26,ESE,107,0.0,-999.0,72,-99.99,,,0.02,weatherlink.com 1.10,2013-02-07 00:05:00,
2013-02-06 19:20:00,20.2,13.0,30.26,ESE,107,0.0,-999.0,72,-99.99,,,0.02,weatherlink.com 1.10,2013-02-07 00:20:00,
2013-02-06 19:35:00,19.5,12.0,30.25,East,94,0.0,-999.0,74,-99.99,,,0.02,weatherlink.com 1.10,2013-02-07 00:35:00,
2013-02-06 19:50:00,20.3,14.0,30.25,East,90,0.0,-999.0,75,-99.99,,,0.02,weatherlink.com 1.10,2013-02-07 00:50:00,
2013-02-06 20:05:00,21.1,14.0,30.24,NE,56,6.0,-999.0,75,-99.99,,,0.02,weatherlink.com 1.10,2013-02-07 01:05:00,
2013-02-06 20:20:00,21.6,15.0,30.25,ENE,61,3.0,-999.0,75,-99.99,,,0.02,weatherlink.com 1.10,2013-02-07 01:20:00,
2013-02-06 20:35:00,22.9,16.0,30.24,ENE,60,4.0,-999.0,74,-99.99,,,0.02,weatherlink.com 1.10,2013-02-07 01:35:00,
2013-02-06 20:50:00,23.2,16.0,30.23,ESE,123,8.0,-999.0,74,-99.99,,,0.02,weatherlink.com 1.10,2013-02-07 01:50:00,
2013-02-06 21:05:00,22.9,16.0,30.24,ESE,105,7.0,-999.0,74,-99.99,,,0.02,weatherlink.com 1.10,2013-02-07 02:05:00,
2013-02-06 21:20:00,23.3,16.0,30.24,ESE,103,7.0,-999.0,74,-99.99,,,0.02,weatherlink.com 1.10,2013-02-07 02:20:00,
2013-02-06 21:35:00,23.6,17.0,30.24,ESE,109,7.0,-999.0,75,-99.99,,,0.02,weatherlink.com 1.10,2013-02-07 02:35:00,
2013-02-06 21:50:00,23.5,16.0,30.23,East,100,8.0,-999.0,74,-99.99,,,0.02,weatherlink.com 1.10,2013-02-07 02:50:00,
2013-02-06 22:05:00,23.0,17.0,30.22,ESE,109,7.0,-999.0,76,-99.99,,,0.02,weatherlink.com 1.10,2013-02-07 03:05:00,
2013-02-06 22:20:00,23.6,17.0,30.21,ESE,103,8.0,-999.0,77,-99.99,,,0.02,weatherlink.com 1.10,2013-02-07 03:20:00,
2013-02-06 22:35:00,24.2,17.0,30.20,ESE,121,9.0,-999.0,74,-99.99,,,0.02,weatherlink.com 1.10,2013-02-07 03:35:00,
2013-02-06 22:50:00,24.4,17.0,30.20,SE,130,2.0,-999.0,73,-99.99,,,0.02,weatherlink.com 1.10,2013-02-07 03:50:00,
2013-02-06 23:05:00,24.5,17.0,30.20,SE,130,8.0,-999.0,74,-99.99,,,0.02,weatherlink.com 1.10,2013-02-07 04:05:00,
2013-02-06 23:20:00,25.0,18.0,30.21,SE,136,6.0,-999.0,74,-99.99,,,0.02,weatherlink.com 1.10,2013-02-07 04:20:00,
2013-02-06 23:35:00,25.1,18.0,30.21,SE,136,0.0,-999.0,75,-99.99,,,0.02,weatherlink.com 1.10,2013-02-07 04:35:00,
2013-02-06 23:50:00,24.8,19.0,30.21,SE,136,2.0,-999.0,77,-99.99,,,0.02,weatherlink.com 1.10,2013-02-07 04:50:00,